sensor_id;sensor_type;location;lat;lon;timestamp;P1;durP1;ratioP1;P2;durP2;ratioP2
25073;SDS011;13066;52.042;5.648;2024-02-21T00:00:57;10.40;;;5.38;;
25073;SDS011;13066;52.042;5.648;2024-02-21T00:03:25;8.55;;;4.80;;
25073;SDS011;13066;52.042;5.648;2024-02-21T00:05:53;9.70;;;5.22;;
25073;SDS011;13066;52.042;5.648;2024-02-21T00:08:21;9.45;;;4.55;;
25073;SDS011;13066;52.042;5.648;2024-02-21T00:10:49;10.77;;;4.63;;
25073;SDS011;13066;52.042;5.648;2024-02-21T00:13:19;9.95;;;4.78;;
25073;SDS011;13066;52.042;5.648;2024-02-21T00:15:47;9.70;;;4.60;;
25073;SDS011;13066;52.042;5.648;2024-02-21T00:18:15;10.82;;;5.00;;
25073;SDS011;13066;52.042;5.648;2024-02-21T00:20:43;13.65;;;4.90;;
25073;SDS011;13066;52.042;5.648;2024-02-21T00:23:11;10.60;;;4.75;;
25073;SDS011;13066;52.042;5.648;2024-02-21T00:25:39;7.55;;;4.43;;
25073;SDS011;13066;52.042;5.648;2024-02-21T00:28:07;9.93;;;4.20;;
25073;SDS011;13066;52.042;5.648;2024-02-21T00:30:37;9.60;;;4.35;;
25073;SDS011;13066;52.042;5.648;2024-02-21T00:33:05;11.45;;;5.00;;
25073;SDS011;13066;52.042;5.648;2024-02-21T00:35:34;10.93;;;4.82;;
25073;SDS011;13066;52.042;5.648;2024-02-21T00:38:03;10.05;;;4.78;;
25073;SDS011;13066;52.042;5.648;2024-02-21T00:40:31;8.13;;;4.65;;
25073;SDS011;13066;52.042;5.648;2024-02-21T00:42:59;10.73;;;4.68;;
25073;SDS011;13066;52.042;5.648;2024-02-21T00:45:27;8.40;;;4.57;;
25073;SDS011;13066;52.042;5.648;2024-02-21T00:47:56;10.90;;;4.78;;
25073;SDS011;13066;52.042;5.648;2024-02-21T00:50:24;11.68;;;5.28;;
25073;SDS011;13066;52.042;5.648;2024-02-21T00:52:52;9.57;;;5.18;;
25073;SDS011;13066;52.042;5.648;2024-02-21T00:55:20;11.30;;;5.18;;
25073;SDS011;13066;52.042;5.648;2024-02-21T00:57:48;10.68;;;4.93;;
25073;SDS011;13066;52.042;5.648;2024-02-21T01:00:17;8.07;;;5.03;;
25073;SDS011;13066;52.042;5.648;2024-02-21T01:02:46;13.23;;;5.28;;
25073;SDS011;13066;52.042;5.648;2024-02-21T01:05:18;9.70;;;4.68;;
25073;SDS011;13066;52.042;5.648;2024-02-21T01:07:46;8.07;;;4.70;;
25073;SDS011;13066;52.042;5.648;2024-02-21T01:10:14;13.93;;;5.45;;
25073;SDS011;13066;52.042;5.648;2024-02-21T01:12:43;11.38;;;5.03;;
25073;SDS011;13066;52.042;5.648;2024-02-21T01:15:11;8.30;;;4.80;;
25073;SDS011;13066;52.042;5.648;2024-02-21T01:17:39;11.00;;;5.07;;
25073;SDS011;13066;52.042;5.648;2024-02-21T01:20:09;10.73;;;5.43;;
25073;SDS011;13066;52.042;5.648;2024-02-21T01:22:39;10.75;;;5.15;;
25073;SDS011;13066;52.042;5.648;2024-02-21T01:25:08;10.40;;;4.75;;
25073;SDS011;13066;52.042;5.648;2024-02-21T01:27:36;10.32;;;5.18;;
25073;SDS011;13066;52.042;5.648;2024-02-21T01:30:04;10.73;;;5.00;;
25073;SDS011;13066;52.042;5.648;2024-02-21T01:32:33;12.13;;;4.97;;
25073;SDS011;13066;52.042;5.648;2024-02-21T01:35:01;11.32;;;4.85;;
25073;SDS011;13066;52.042;5.648;2024-02-21T01:37:30;12.52;;;4.80;;
25073;SDS011;13066;52.042;5.648;2024-02-21T01:39:59;10.82;;;5.10;;
25073;SDS011;13066;52.042;5.648;2024-02-21T01:42:29;12.52;;;5.00;;
25073;SDS011;13066;52.042;5.648;2024-02-21T01:44:57;14.60;;;5.45;;
25073;SDS011;13066;52.042;5.648;2024-02-21T01:47:25;12.35;;;5.25;;
25073;SDS011;13066;52.042;5.648;2024-02-21T01:49:53;10.57;;;4.57;;
25073;SDS011;13066;52.042;5.648;2024-02-21T01:52:21;10.38;;;5.00;;
25073;SDS011;13066;52.042;5.648;2024-02-21T01:54:49;14.00;;;5.63;;
25073;SDS011;13066;52.042;5.648;2024-02-21T01:57:19;12.18;;;4.97;;
25073;SDS011;13066;52.042;5.648;2024-02-21T01:59:47;11.27;;;5.43;;
25073;SDS011;13066;52.042;5.648;2024-02-21T02:02:15;11.18;;;5.20;;
25073;SDS011;13066;52.042;5.648;2024-02-21T02:04:44;12.63;;;4.75;;
25073;SDS011;13066;52.042;5.648;2024-02-21T02:07:13;10.60;;;5.28;;
25073;SDS011;13066;52.042;5.648;2024-02-21T02:09:41;15.02;;;6.00;;
25073;SDS011;13066;52.042;5.648;2024-02-21T02:12:09;10.10;;;5.15;;
25073;SDS011;13066;52.042;5.648;2024-02-21T02:14:39;10.38;;;5.15;;
25073;SDS011;13066;52.042;5.648;2024-02-21T02:17:07;10.00;;;5.07;;
25073;SDS011;13066;52.042;5.648;2024-02-21T02:19:35;10.38;;;4.80;;
25073;SDS011;13066;52.042;5.648;2024-02-21T02:22:06;11.85;;;5.10;;
25073;SDS011;13066;52.042;5.648;2024-02-21T02:24:39;10.00;;;5.03;;
25073;SDS011;13066;52.042;5.648;2024-02-21T02:27:07;10.20;;;5.18;;
25073;SDS011;13066;52.042;5.648;2024-02-21T02:29:35;9.05;;;4.50;;
25073;SDS011;13066;52.042;5.648;2024-02-21T02:32:04;8.38;;;4.93;;
25073;SDS011;13066;52.042;5.648;2024-02-21T02:34:32;12.30;;;4.82;;
25073;SDS011;13066;52.042;5.648;2024-02-21T02:37:00;6.32;;;4.03;;
25073;SDS011;13066;52.042;5.648;2024-02-21T02:39:28;13.48;;;5.60;;
25073;SDS011;13066;52.042;5.648;2024-02-21T02:41:58;12.32;;;5.10;;
25073;SDS011;13066;52.042;5.648;2024-02-21T02:44:26;8.70;;;4.90;;
25073;SDS011;13066;52.042;5.648;2024-02-21T02:46:54;11.82;;;5.53;;
25073;SDS011;13066;52.042;5.648;2024-02-21T02:49:22;11.80;;;5.15;;
25073;SDS011;13066;52.042;5.648;2024-02-21T02:51:50;12.52;;;5.13;;
25073;SDS011;13066;52.042;5.648;2024-02-21T02:54:18;13.52;;;5.25;;
25073;SDS011;13066;52.042;5.648;2024-02-21T02:56:46;12.77;;;5.78;;
25073;SDS011;13066;52.042;5.648;2024-02-21T02:59:16;14.18;;;5.00;;
25073;SDS011;13066;52.042;5.648;2024-02-21T03:01:44;10.20;;;5.22;;
25073;SDS011;13066;52.042;5.648;2024-02-21T03:04:12;12.18;;;5.25;;
25073;SDS011;13066;52.042;5.648;2024-02-21T03:06:41;12.15;;;5.40;;
25073;SDS011;13066;52.042;5.648;2024-02-21T03:09:09;11.20;;;5.07;;
25073;SDS011;13066;52.042;5.648;2024-02-21T03:11:38;9.98;;;4.55;;
25073;SDS011;13066;52.042;5.648;2024-02-21T03:14:07;11.40;;;5.28;;
25073;SDS011;13066;52.042;5.648;2024-02-21T03:16:37;11.27;;;5.72;;
25073;SDS011;13066;52.042;5.648;2024-02-21T03:19:05;13.50;;;5.90;;
25073;SDS011;13066;52.042;5.648;2024-02-21T03:21:33;12.93;;;6.15;;
25073;SDS011;13066;52.042;5.648;2024-02-21T03:24:01;13.73;;;5.47;;
25073;SDS011;13066;52.042;5.648;2024-02-21T03:26:30;10.52;;;5.47;;
25073;SDS011;13066;52.042;5.648;2024-02-21T03:28:58;12.77;;;5.95;;
25073;SDS011;13066;52.042;5.648;2024-02-21T03:31:26;14.10;;;6.22;;
25073;SDS011;13066;52.042;5.648;2024-02-21T03:33:59;12.68;;;5.72;;
25073;SDS011;13066;52.042;5.648;2024-02-21T03:36:27;10.70;;;5.57;;
25073;SDS011;13066;52.042;5.648;2024-02-21T03:38:55;14.32;;;5.70;;
25073;SDS011;13066;52.042;5.648;2024-02-21T03:41:23;8.88;;;5.30;;
25073;SDS011;13066;52.042;5.648;2024-02-21T03:43:51;9.95;;;5.68;;
25073;SDS011;13066;52.042;5.648;2024-02-21T03:46:19;12.25;;;5.53;;
25073;SDS011;13066;52.042;5.648;2024-02-21T03:48:48;13.05;;;5.38;;
25073;SDS011;13066;52.042;5.648;2024-02-21T03:51:17;10.95;;;5.47;;
25073;SDS011;13066;52.042;5.648;2024-02-21T03:53:45;11.05;;;5.63;;
25073;SDS011;13066;52.042;5.648;2024-02-21T03:56:13;9.90;;;5.18;;
25073;SDS011;13066;52.042;5.648;2024-02-21T03:58:41;11.18;;;4.97;;
25073;SDS011;13066;52.042;5.648;2024-02-21T04:01:09;15.05;;;6.18;;
25073;SDS011;13066;52.042;5.648;2024-02-21T04:03:39;12.60;;;5.53;;
25073;SDS011;13066;52.042;5.648;2024-02-21T04:06:07;13.10;;;5.50;;
25073;SDS011;13066;52.042;5.648;2024-02-21T04:08:36;11.98;;;5.35;;
25073;SDS011;13066;52.042;5.648;2024-02-21T04:11:04;10.70;;;5.20;;
25073;SDS011;13066;52.042;5.648;2024-02-21T04:13:35;9.70;;;5.60;;
25073;SDS011;13066;52.042;5.648;2024-02-21T04:16:03;12.88;;;6.53;;
25073;SDS011;13066;52.042;5.648;2024-02-21T04:18:32;12.88;;;5.82;;
25073;SDS011;13066;52.042;5.648;2024-02-21T04:21:00;8.27;;;5.40;;
25073;SDS011;13066;52.042;5.648;2024-02-21T04:23:28;8.90;;;5.15;;
25073;SDS011;13066;52.042;5.648;2024-02-21T04:25:57;12.90;;;5.45;;
25073;SDS011;13066;52.042;5.648;2024-02-21T04:28:25;10.43;;;5.38;;
25073;SDS011;13066;52.042;5.648;2024-02-21T04:30:53;9.38;;;5.57;;
25073;SDS011;13066;52.042;5.648;2024-02-21T04:33:21;10.57;;;5.22;;
25073;SDS011;13066;52.042;5.648;2024-02-21T04:35:49;10.13;;;5.47;;
25073;SDS011;13066;52.042;5.648;2024-02-21T04:38:18;9.80;;;6.00;;
25073;SDS011;13066;52.042;5.648;2024-02-21T04:40:46;10.45;;;6.15;;
25073;SDS011;13066;52.042;5.648;2024-02-21T04:43:15;9.10;;;6.07;;
25073;SDS011;13066;52.042;5.648;2024-02-21T04:45:44;11.15;;;6.47;;
25073;SDS011;13066;52.042;5.648;2024-02-21T04:48:12;12.48;;;6.47;;
25073;SDS011;13066;52.042;5.648;2024-02-21T04:50:40;12.43;;;7.05;;
25073;SDS011;13066;52.042;5.648;2024-02-21T04:53:09;12.88;;;7.35;;
25073;SDS011;13066;52.042;5.648;2024-02-21T04:55:36;11.43;;;7.10;;
25073;SDS011;13066;52.042;5.648;2024-02-21T04:58:06;12.52;;;6.78;;
25073;SDS011;13066;52.042;5.648;2024-02-21T05:00:36;10.75;;;6.88;;
25073;SDS011;13066;52.042;5.648;2024-02-21T05:03:04;15.32;;;7.10;;
25073;SDS011;13066;52.042;5.648;2024-02-21T05:05:32;13.70;;;7.03;;
25073;SDS011;13066;52.042;5.648;2024-02-21T05:08:00;12.43;;;7.13;;
25073;SDS011;13066;52.042;5.648;2024-02-21T05:10:28;10.48;;;6.22;;
25073;SDS011;13066;52.042;5.648;2024-02-21T05:12:57;11.25;;;6.72;;
25073;SDS011;13066;52.042;5.648;2024-02-21T05:15:25;11.23;;;6.50;;
25073;SDS011;13066;52.042;5.648;2024-02-21T05:17:54;9.85;;;6.38;;
25073;SDS011;13066;52.042;5.648;2024-02-21T05:20:22;10.18;;;6.30;;
25073;SDS011;13066;52.042;5.648;2024-02-21T05:22:50;9.27;;;6.30;;
25073;SDS011;13066;52.042;5.648;2024-02-21T05:25:19;8.52;;;6.50;;
25073;SDS011;13066;52.042;5.648;2024-02-21T05:27:47;12.93;;;6.72;;
25073;SDS011;13066;52.042;5.648;2024-02-21T05:30:15;12.52;;;6.97;;
25073;SDS011;13066;52.042;5.648;2024-02-21T05:32:43;11.68;;;6.88;;
25073;SDS011;13066;52.042;5.648;2024-02-21T05:35:13;12.65;;;6.55;;
25073;SDS011;13066;52.042;5.648;2024-02-21T05:37:41;11.88;;;6.38;;
25073;SDS011;13066;52.042;5.648;2024-02-21T05:40:10;12.30;;;7.38;;
25073;SDS011;13066;52.042;5.648;2024-02-21T05:42:39;11.18;;;6.53;;
25073;SDS011;13066;52.042;5.648;2024-02-21T05:45:08;12.57;;;6.97;;
25073;SDS011;13066;52.042;5.648;2024-02-21T05:47:36;10.32;;;6.82;;
25073;SDS011;13066;52.042;5.648;2024-02-21T05:50:05;13.43;;;7.38;;
25073;SDS011;13066;52.042;5.648;2024-02-21T05:52:35;13.90;;;7.85;;
25073;SDS011;13066;52.042;5.648;2024-02-21T05:55:03;13.07;;;7.78;;
25073;SDS011;13066;52.042;5.648;2024-02-21T05:57:32;14.55;;;8.45;;
25073;SDS011;13066;52.042;5.648;2024-02-21T06:00:02;12.70;;;8.80;;
25073;SDS011;13066;52.042;5.648;2024-02-21T06:02:37;15.02;;;9.20;;
25073;SDS011;13066;52.042;5.648;2024-02-21T06:05:07;14.40;;;9.13;;
25073;SDS011;13066;52.042;5.648;2024-02-21T06:07:37;15.20;;;9.43;;
25073;SDS011;13066;52.042;5.648;2024-02-21T06:10:06;15.27;;;9.45;;
25073;SDS011;13066;52.042;5.648;2024-02-21T06:12:35;17.27;;;9.77;;
25073;SDS011;13066;52.042;5.648;2024-02-21T06:15:03;18.45;;;10.88;;
25073;SDS011;13066;52.042;5.648;2024-02-21T06:17:32;17.50;;;10.63;;
25073;SDS011;13066;52.042;5.648;2024-02-21T06:20:00;20.25;;;10.45;;
25073;SDS011;13066;52.042;5.648;2024-02-21T06:22:28;14.57;;;10.07;;
25073;SDS011;13066;52.042;5.648;2024-02-21T06:24:59;19.30;;;11.35;;
25073;SDS011;13066;52.042;5.648;2024-02-21T06:27:27;18.40;;;11.02;;
25073;SDS011;13066;52.042;5.648;2024-02-21T06:29:55;18.40;;;11.18;;
25073;SDS011;13066;52.042;5.648;2024-02-21T06:32:22;19.63;;;11.35;;
25073;SDS011;13066;52.042;5.648;2024-02-21T06:34:51;17.65;;;10.55;;
25073;SDS011;13066;52.042;5.648;2024-02-21T06:37:19;20.02;;;11.73;;
25073;SDS011;13066;52.042;5.648;2024-02-21T06:39:47;17.80;;;11.05;;
25073;SDS011;13066;52.042;5.648;2024-02-21T06:42:16;19.50;;;10.75;;
25073;SDS011;13066;52.042;5.648;2024-02-21T06:44:44;19.08;;;11.73;;
25073;SDS011;13066;52.042;5.648;2024-02-21T06:47:12;20.15;;;11.15;;
25073;SDS011;13066;52.042;5.648;2024-02-21T06:49:40;17.95;;;10.20;;
25073;SDS011;13066;52.042;5.648;2024-02-21T06:52:08;21.98;;;10.55;;
25073;SDS011;13066;52.042;5.648;2024-02-21T06:54:36;16.30;;;10.18;;
25073;SDS011;13066;52.042;5.648;2024-02-21T06:57:06;18.55;;;10.10;;
25073;SDS011;13066;52.042;5.648;2024-02-21T06:59:35;19.13;;;10.00;;
25073;SDS011;13066;52.042;5.648;2024-02-21T07:02:03;19.63;;;10.68;;
25073;SDS011;13066;52.042;5.648;2024-02-21T07:04:32;18.67;;;10.57;;
25073;SDS011;13066;52.042;5.648;2024-02-21T07:07:00;16.27;;;9.88;;
25073;SDS011;13066;52.042;5.648;2024-02-21T07:09:28;16.48;;;9.90;;
25073;SDS011;13066;52.042;5.648;2024-02-21T07:11:58;18.35;;;10.30;;
25073;SDS011;13066;52.042;5.648;2024-02-21T07:14:27;18.00;;;9.15;;
25073;SDS011;13066;52.042;5.648;2024-02-21T07:16:57;14.27;;;8.98;;
25073;SDS011;13066;52.042;5.648;2024-02-21T07:19:25;16.23;;;9.60;;
25073;SDS011;13066;52.042;5.648;2024-02-21T07:21:53;15.95;;;8.80;;
25073;SDS011;13066;52.042;5.648;2024-02-21T07:24:21;13.88;;;8.32;;
25073;SDS011;13066;52.042;5.648;2024-02-21T07:26:49;17.45;;;9.52;;
25073;SDS011;13066;52.042;5.648;2024-02-21T07:29:17;19.30;;;10.13;;
25073;SDS011;13066;52.042;5.648;2024-02-21T07:31:45;13.30;;;8.27;;
25073;SDS011;13066;52.042;5.648;2024-02-21T07:34:17;14.25;;;8.85;;
25073;SDS011;13066;52.042;5.648;2024-02-21T07:36:45;16.30;;;8.52;;
25073;SDS011;13066;52.042;5.648;2024-02-21T07:39:13;15.60;;;9.90;;
25073;SDS011;13066;52.042;5.648;2024-02-21T07:41:41;18.00;;;8.88;;
25073;SDS011;13066;52.042;5.648;2024-02-21T07:44:11;17.95;;;9.85;;
25073;SDS011;13066;52.042;5.648;2024-02-21T07:46:39;16.70;;;9.13;;
25073;SDS011;13066;52.042;5.648;2024-02-21T07:49:07;13.57;;;8.18;;
25073;SDS011;13066;52.042;5.648;2024-02-21T07:51:37;16.65;;;9.32;;
25073;SDS011;13066;52.042;5.648;2024-02-21T07:54:05;18.00;;;9.02;;
25073;SDS011;13066;52.042;5.648;2024-02-21T07:56:35;16.17;;;8.85;;
25073;SDS011;13066;52.042;5.648;2024-02-21T07:59:03;15.70;;;8.90;;
25073;SDS011;13066;52.042;5.648;2024-02-21T08:01:31;14.00;;;8.57;;
25073;SDS011;13066;52.042;5.648;2024-02-21T08:03:59;16.27;;;10.20;;
25073;SDS011;13066;52.042;5.648;2024-02-21T08:06:29;18.63;;;9.75;;
25073;SDS011;13066;52.042;5.648;2024-02-21T08:08:58;17.08;;;9.45;;
25073;SDS011;13066;52.042;5.648;2024-02-21T08:11:27;16.00;;;9.13;;
25073;SDS011;13066;52.042;5.648;2024-02-21T08:13:55;17.92;;;9.23;;
25073;SDS011;13066;52.042;5.648;2024-02-21T08:16:24;18.67;;;10.25;;
25073;SDS011;13066;52.042;5.648;2024-02-21T08:18:53;17.17;;;9.43;;
25073;SDS011;13066;52.042;5.648;2024-02-21T08:21:21;21.55;;;10.68;;
25073;SDS011;13066;52.042;5.648;2024-02-21T08:23:49;17.05;;;9.70;;
25073;SDS011;13066;52.042;5.648;2024-02-21T08:26:19;16.50;;;10.20;;
25073;SDS011;13066;52.042;5.648;2024-02-21T08:28:47;17.50;;;9.80;;
25073;SDS011;13066;52.042;5.648;2024-02-21T08:31:18;15.35;;;9.43;;
25073;SDS011;13066;52.042;5.648;2024-02-21T08:33:46;15.10;;;9.15;;
25073;SDS011;13066;52.042;5.648;2024-02-21T08:36:17;16.13;;;9.32;;
25073;SDS011;13066;52.042;5.648;2024-02-21T08:38:45;16.60;;;8.68;;
25073;SDS011;13066;52.042;5.648;2024-02-21T08:41:14;15.23;;;8.75;;
25073;SDS011;13066;52.042;5.648;2024-02-21T08:43:44;16.08;;;9.02;;
25073;SDS011;13066;52.042;5.648;2024-02-21T08:46:12;18.77;;;9.18;;
25073;SDS011;13066;52.042;5.648;2024-02-21T08:48:40;16.83;;;9.27;;
25073;SDS011;13066;52.042;5.648;2024-02-21T08:51:08;18.15;;;9.52;;
25073;SDS011;13066;52.042;5.648;2024-02-21T08:53:36;16.63;;;9.27;;
25073;SDS011;13066;52.042;5.648;2024-02-21T08:56:05;13.50;;;8.48;;
25073;SDS011;13066;52.042;5.648;2024-02-21T08:58:35;13.98;;;8.52;;
25073;SDS011;13066;52.042;5.648;2024-02-21T09:01:06;13.98;;;8.68;;
25073;SDS011;13066;52.042;5.648;2024-02-21T09:03:36;14.98;;;9.13;;
25073;SDS011;13066;52.042;5.648;2024-02-21T09:06:09;15.45;;;8.60;;
25073;SDS011;13066;52.042;5.648;2024-02-21T09:08:39;18.23;;;8.40;;
25073;SDS011;13066;52.042;5.648;2024-02-21T09:17:30;13.98;;;7.75;;
25073;SDS011;13066;52.042;5.648;2024-02-21T09:23:42;14.85;;;7.70;;
25073;SDS011;13066;52.042;5.648;2024-02-21T09:26:10;12.80;;;8.13;;
25073;SDS011;13066;52.042;5.648;2024-02-21T09:28:40;11.43;;;8.13;;
25073;SDS011;13066;52.042;5.648;2024-02-21T09:31:08;12.98;;;7.72;;
25073;SDS011;13066;52.042;5.648;2024-02-21T09:33:38;25.38;;;9.52;;
25073;SDS011;13066;52.042;5.648;2024-02-21T09:36:06;13.95;;;8.60;;
25073;SDS011;13066;52.042;5.648;2024-02-21T09:38:34;14.38;;;8.10;;
25073;SDS011;13066;52.042;5.648;2024-02-21T09:41:04;14.98;;;8.13;;
25073;SDS011;13066;52.042;5.648;2024-02-21T09:43:39;13.63;;;7.80;;
25073;SDS011;13066;52.042;5.648;2024-02-21T09:46:08;16.15;;;8.02;;
25073;SDS011;13066;52.042;5.648;2024-02-21T09:48:45;14.98;;;7.75;;
25073;SDS011;13066;52.042;5.648;2024-02-21T09:51:21;13.52;;;7.53;;
25073;SDS011;13066;52.042;5.648;2024-02-21T09:53:50;12.75;;;7.95;;
25073;SDS011;13066;52.042;5.648;2024-02-21T09:56:32;13.18;;;7.38;;
25073;SDS011;13066;52.042;5.648;2024-02-21T09:59:00;15.82;;;8.15;;
25073;SDS011;13066;52.042;5.648;2024-02-21T10:01:31;9.98;;;6.95;;
25073;SDS011;13066;52.042;5.648;2024-02-21T10:04:02;11.13;;;6.60;;
25073;SDS011;13066;52.042;5.648;2024-02-21T10:06:32;12.02;;;7.30;;
25073;SDS011;13066;52.042;5.648;2024-02-21T10:09:00;10.65;;;7.20;;
25073;SDS011;13066;52.042;5.648;2024-02-21T10:11:28;11.13;;;7.45;;
25073;SDS011;13066;52.042;5.648;2024-02-21T10:14:03;11.15;;;7.57;;
25073;SDS011;13066;52.042;5.648;2024-02-21T10:16:33;8.20;;;6.85;;
25073;SDS011;13066;52.042;5.648;2024-02-21T10:19:03;11.63;;;6.88;;
25073;SDS011;13066;52.042;5.648;2024-02-21T10:21:31;8.30;;;6.28;;
25073;SDS011;13066;52.042;5.648;2024-02-21T10:23:59;11.02;;;6.55;;
25073;SDS011;13066;52.042;5.648;2024-02-21T10:26:27;10.13;;;6.28;;
25073;SDS011;13066;52.042;5.648;2024-02-21T10:28:56;8.10;;;6.10;;
25073;SDS011;13066;52.042;5.648;2024-02-21T10:31:24;7.72;;;5.68;;
25073;SDS011;13066;52.042;5.648;2024-02-21T10:33:54;7.78;;;5.95;;
25073;SDS011;13066;52.042;5.648;2024-02-21T10:36:25;7.75;;;5.82;;
25073;SDS011;13066;52.042;5.648;2024-02-21T10:38:54;9.68;;;5.65;;
25073;SDS011;13066;52.042;5.648;2024-02-21T10:41:22;7.55;;;5.72;;
25073;SDS011;13066;52.042;5.648;2024-02-21T10:43:51;7.88;;;5.38;;
25073;SDS011;13066;52.042;5.648;2024-02-21T10:46:22;6.10;;;4.50;;
25073;SDS011;13066;52.042;5.648;2024-02-21T10:48:55;7.55;;;4.95;;
25073;SDS011;13066;52.042;5.648;2024-02-21T10:51:32;6.63;;;4.97;;
25073;SDS011;13066;52.042;5.648;2024-02-21T10:54:04;7.13;;;4.85;;
25073;SDS011;13066;52.042;5.648;2024-02-21T10:56:39;7.85;;;4.95;;
25073;SDS011;13066;52.042;5.648;2024-02-21T10:59:08;7.72;;;5.00;;
25073;SDS011;13066;52.042;5.648;2024-02-21T11:01:36;6.88;;;4.93;;
25073;SDS011;13066;52.042;5.648;2024-02-21T11:04:06;5.60;;;4.65;;
25073;SDS011;13066;52.042;5.648;2024-02-21T11:06:37;7.22;;;5.18;;
25073;SDS011;13066;52.042;5.648;2024-02-21T11:09:07;6.60;;;5.30;;
25073;SDS011;13066;52.042;5.648;2024-02-21T11:11:37;6.45;;;5.60;;
25073;SDS011;13066;52.042;5.648;2024-02-21T11:14:07;6.57;;;5.68;;
25073;SDS011;13066;52.042;5.648;2024-02-21T11:16:36;9.10;;;5.90;;
25073;SDS011;13066;52.042;5.648;2024-02-21T11:19:06;6.97;;;6.20;;
25073;SDS011;13066;52.042;5.648;2024-02-21T11:21:37;8.35;;;6.68;;
25073;SDS011;13066;52.042;5.648;2024-02-21T11:24:07;9.15;;;6.53;;
25073;SDS011;13066;52.042;5.648;2024-02-21T11:26:36;9.40;;;7.30;;
25073;SDS011;13066;52.042;5.648;2024-02-21T11:29:04;8.23;;;6.40;;
25073;SDS011;13066;52.042;5.648;2024-02-21T11:31:38;10.20;;;7.15;;
25073;SDS011;13066;52.042;5.648;2024-02-21T11:34:08;7.45;;;6.60;;
25073;SDS011;13066;52.042;5.648;2024-02-21T11:36:47;11.38;;;6.78;;
25073;SDS011;13066;52.042;5.648;2024-02-21T11:39:20;9.80;;;6.13;;
25073;SDS011;13066;52.042;5.648;2024-02-21T11:42:02;8.52;;;6.82;;
25073;SDS011;13066;52.042;5.648;2024-02-21T11:44:31;9.50;;;6.68;;
25073;SDS011;13066;52.042;5.648;2024-02-21T11:46:59;13.48;;;6.82;;
25073;SDS011;13066;52.042;5.648;2024-02-21T11:49:28;13.60;;;7.13;;
25073;SDS011;13066;52.042;5.648;2024-02-21T11:52:01;13.48;;;6.78;;
25073;SDS011;13066;52.042;5.648;2024-02-21T11:54:30;11.95;;;6.90;;
25073;SDS011;13066;52.042;5.648;2024-02-21T11:56:59;9.75;;;6.72;;
25073;SDS011;13066;52.042;5.648;2024-02-21T11:59:29;9.05;;;6.30;;
25073;SDS011;13066;52.042;5.648;2024-02-21T12:01:58;9.73;;;6.22;;
25073;SDS011;13066;52.042;5.648;2024-02-21T12:04:26;9.00;;;6.55;;
25073;SDS011;13066;52.042;5.648;2024-02-21T12:06:56;8.05;;;6.05;;
25073;SDS011;13066;52.042;5.648;2024-02-21T12:09:26;10.10;;;5.50;;
25073;SDS011;13066;52.042;5.648;2024-02-21T12:11:57;7.93;;;5.05;;
25073;SDS011;13066;52.042;5.648;2024-02-21T12:14:27;7.53;;;5.25;;
25073;SDS011;13066;52.042;5.648;2024-02-21T12:16:57;7.28;;;5.07;;
25073;SDS011;13066;52.042;5.648;2024-02-21T12:19:25;7.47;;;4.40;;
25073;SDS011;13066;52.042;5.648;2024-02-21T12:21:53;6.88;;;5.00;;
25073;SDS011;13066;52.042;5.648;2024-02-21T12:24:25;10.05;;;5.00;;
25073;SDS011;13066;52.042;5.648;2024-02-21T12:26:54;8.15;;;4.43;;
25073;SDS011;13066;52.042;5.648;2024-02-21T12:29:23;8.55;;;4.95;;
25073;SDS011;13066;52.042;5.648;2024-02-21T12:31:52;10.27;;;5.07;;
25073;SDS011;13066;52.042;5.648;2024-02-21T12:34:22;8.35;;;4.63;;
25073;SDS011;13066;52.042;5.648;2024-02-21T12:36:54;7.55;;;5.18;;
25073;SDS011;13066;52.042;5.648;2024-02-21T12:39:22;6.95;;;4.57;;
25073;SDS011;13066;52.042;5.648;2024-02-21T12:41:51;8.50;;;4.93;;
25073;SDS011;13066;52.042;5.648;2024-02-21T12:44:20;9.02;;;4.90;;
25073;SDS011;13066;52.042;5.648;2024-02-21T12:46:48;9.68;;;5.00;;
25073;SDS011;13066;52.042;5.648;2024-02-21T12:49:20;10.15;;;5.15;;
25073;SDS011;13066;52.042;5.648;2024-02-21T12:51:49;7.30;;;4.70;;
25073;SDS011;13066;52.042;5.648;2024-02-21T12:54:17;8.35;;;4.57;;
25073;SDS011;13066;52.042;5.648;2024-02-21T12:56:45;11.73;;;4.70;;
25073;SDS011;13066;52.042;5.648;2024-02-21T12:59:14;8.35;;;4.68;;
25073;SDS011;13066;52.042;5.648;2024-02-21T13:01:42;9.38;;;4.82;;
25073;SDS011;13066;52.042;5.648;2024-02-21T13:04:11;8.68;;;4.53;;
25073;SDS011;13066;52.042;5.648;2024-02-21T13:06:39;8.93;;;4.55;;
25073;SDS011;13066;52.042;5.648;2024-02-21T13:09:07;8.45;;;4.57;;
25073;SDS011;13066;52.042;5.648;2024-02-21T13:11:37;8.60;;;5.07;;
25073;SDS011;13066;52.042;5.648;2024-02-21T13:14:05;6.70;;;4.30;;
25073;SDS011;13066;52.042;5.648;2024-02-21T13:16:35;9.48;;;4.72;;
25073;SDS011;13066;52.042;5.648;2024-02-21T13:19:06;7.35;;;4.28;;
25073;SDS011;13066;52.042;5.648;2024-02-21T13:21:35;8.07;;;4.22;;
25073;SDS011;13066;52.042;5.648;2024-02-21T13:24:03;6.68;;;4.05;;
25073;SDS011;13066;52.042;5.648;2024-02-21T13:26:31;11.38;;;6.20;;
25073;SDS011;13066;52.042;5.648;2024-02-21T13:29:00;10.85;;;5.30;;
25073;SDS011;13066;52.042;5.648;2024-02-21T13:31:29;19.95;;;10.77;;
25073;SDS011;13066;52.042;5.648;2024-02-21T13:33:58;17.48;;;9.30;;
25073;SDS011;13066;52.042;5.648;2024-02-21T13:36:27;11.10;;;5.70;;
25073;SDS011;13066;52.042;5.648;2024-02-21T13:38:55;10.88;;;5.43;;
25073;SDS011;13066;52.042;5.648;2024-02-21T13:41:22;9.80;;;4.85;;
25073;SDS011;13066;52.042;5.648;2024-02-21T13:43:51;8.48;;;4.90;;
25073;SDS011;13066;52.042;5.648;2024-02-21T13:46:19;7.72;;;4.22;;
25073;SDS011;13066;52.042;5.648;2024-02-21T13:48:48;8.80;;;4.25;;
25073;SDS011;13066;52.042;5.648;2024-02-21T13:51:17;10.10;;;4.45;;
25073;SDS011;13066;52.042;5.648;2024-02-21T13:53:46;11.32;;;4.65;;
25073;SDS011;13066;52.042;5.648;2024-02-21T13:56:14;7.40;;;3.63;;
25073;SDS011;13066;52.042;5.648;2024-02-21T13:58:43;9.23;;;5.03;;
25073;SDS011;13066;52.042;5.648;2024-02-21T14:01:11;9.48;;;4.40;;
25073;SDS011;13066;52.042;5.648;2024-02-21T14:03:39;6.50;;;3.70;;
25073;SDS011;13066;52.042;5.648;2024-02-21T14:06:08;7.43;;;4.40;;
25073;SDS011;13066;52.042;5.648;2024-02-21T14:08:38;7.63;;;4.05;;
25073;SDS011;13066;52.042;5.648;2024-02-21T14:11:06;11.90;;;4.28;;
25073;SDS011;13066;52.042;5.648;2024-02-21T14:13:35;7.32;;;4.05;;
25073;SDS011;13066;52.042;5.648;2024-02-21T14:16:08;8.20;;;3.97;;
25073;SDS011;13066;52.042;5.648;2024-02-21T14:18:38;9.10;;;3.90;;
25073;SDS011;13066;52.042;5.648;2024-02-21T14:21:07;8.65;;;3.80;;
25073;SDS011;13066;52.042;5.648;2024-02-21T14:23:38;6.38;;;3.47;;
25073;SDS011;13066;52.042;5.648;2024-02-21T14:26:06;8.32;;;3.58;;
25073;SDS011;13066;52.042;5.648;2024-02-21T14:28:35;6.35;;;3.35;;
25073;SDS011;13066;52.042;5.648;2024-02-21T14:31:03;9.40;;;3.72;;
25073;SDS011;13066;52.042;5.648;2024-02-21T14:33:33;7.43;;;2.88;;
25073;SDS011;13066;52.042;5.648;2024-02-21T14:36:02;7.25;;;3.60;;
25073;SDS011;13066;52.042;5.648;2024-02-21T14:38:30;7.82;;;3.40;;
25073;SDS011;13066;52.042;5.648;2024-02-21T14:40:59;5.95;;;2.85;;
25073;SDS011;13066;52.042;5.648;2024-02-21T14:43:29;9.90;;;3.80;;
25073;SDS011;13066;52.042;5.648;2024-02-21T14:45:57;7.25;;;3.28;;
25073;SDS011;13066;52.042;5.648;2024-02-21T14:48:25;7.63;;;3.40;;
25073;SDS011;13066;52.042;5.648;2024-02-21T14:50:55;7.22;;;3.42;;
25073;SDS011;13066;52.042;5.648;2024-02-21T14:53:23;8.18;;;3.38;;
25073;SDS011;13066;52.042;5.648;2024-02-21T14:55:51;4.97;;;3.03;;
25073;SDS011;13066;52.042;5.648;2024-02-21T14:58:21;6.00;;;3.55;;